createdAt,value
2018-04-15T00:00:18.896Z,98.20
2018-04-15T00:02:47.103Z,98.20
2018-04-15T00:05:15.311Z,98.20
2018-04-15T00:07:43.613Z,98.20
2018-04-15T00:10:11.817Z,98.20
2018-04-15T00:12:40.035Z,98.10
2018-04-15T00:15:08.298Z,98.70
2018-04-15T00:17:37.427Z,99.10
2018-04-15T00:20:05.615Z,99.10
2018-04-15T00:22:34.603Z,99.30
2018-04-15T00:25:03.529Z,99.20
2018-04-15T00:27:31.803Z,99.30
2018-04-15T00:30:00.060Z,99.60
2018-04-15T00:32:28.250Z,99.90
2018-04-15T00:34:57.203Z,99.80
2018-04-15T00:37:25.399Z,99.80
2018-04-15T00:39:54.411Z,99.90
2018-04-15T00:42:23.431Z,99.90
2018-04-15T00:44:51.722Z,99.90
2018-04-15T00:47:21.152Z,99.90
2018-04-15T00:49:49.427Z,99.90
2018-04-15T00:52:17.627Z,99.90
2018-04-15T00:54:46.600Z,99.90
2018-04-15T00:57:14.796Z,99.90
2018-04-15T00:59:43.759Z,99.90
2018-04-15T01:02:11.975Z,99.90
2018-04-15T01:04:40.211Z,99.90
2018-04-15T01:07:08.399Z,99.90
2018-04-15T01:09:37.611Z,99.90
2018-04-15T01:12:07.227Z,99.90
2018-04-15T01:14:35.452Z,99.90
2018-04-15T01:17:04.042Z,99.90
2018-04-15T01:21:57.726Z,99.90
2018-04-15T01:24:25.975Z,99.90
2018-04-15T01:26:54.172Z,99.90
2018-04-15T01:29:22.390Z,99.90
2018-04-15T01:31:51.375Z,99.90
2018-04-15T01:34:20.339Z,99.90
2018-04-15T01:36:48.582Z,99.90
2018-04-15T01:39:16.795Z,99.90
2018-04-15T01:41:44.991Z,99.90
2018-04-15T01:44:13.171Z,99.90
2018-04-15T01:46:42.319Z,99.90
2018-04-15T01:49:10.593Z,99.90
2018-04-15T01:51:38.848Z,99.90
2018-04-15T01:54:07.102Z,99.90
2018-04-15T01:56:36.123Z,99.90
2018-04-15T01:59:04.335Z,99.90
2018-04-15T02:01:32.584Z,99.90
2018-04-15T02:04:01.587Z,99.90
2018-04-15T02:06:29.797Z,99.90
2018-04-15T02:08:58.079Z,99.90
2018-04-15T02:11:27.035Z,99.90
2018-04-15T02:13:56.665Z,99.90
2018-04-15T02:16:24.890Z,99.90
2018-04-15T02:18:53.186Z,99.90
2018-04-15T02:21:21.399Z,99.90
2018-04-15T02:23:49.653Z,99.90
2018-04-15T02:26:17.906Z,99.90
2018-04-15T02:28:46.139Z,99.90
2018-04-15T02:31:15.284Z,99.90
2018-04-15T02:33:43.483Z,99.90
2018-04-15T02:36:11.697Z,99.90
2018-04-15T02:38:39.911Z,99.90
2018-04-15T02:41:08.223Z,99.90
2018-04-15T02:43:36.491Z,99.90
2018-04-15T02:46:04.740Z,99.90
2018-04-15T02:48:32.981Z,99.90
2018-04-15T02:51:02.072Z,99.90
2018-04-15T02:53:30.372Z,99.90
2018-04-15T02:55:58.609Z,99.90
2018-04-15T02:58:27.095Z,99.90
2018-04-15T03:00:56.062Z,99.90
2018-04-15T03:03:24.274Z,99.90
2018-04-15T03:05:53.340Z,99.90
2018-04-15T03:08:21.551Z,99.90
2018-04-15T03:10:49.791Z,99.90
2018-04-15T03:13:18.047Z,99.90
2018-04-15T03:15:46.389Z,99.90
2018-04-15T03:18:14.583Z,99.90
2018-04-15T03:20:42.783Z,99.90
2018-04-15T03:23:11.043Z,99.90
2018-04-15T03:25:39.624Z,99.90
2018-04-15T03:28:08.271Z,99.90
2018-04-15T03:30:36.543Z,99.90
2018-04-15T03:33:05.488Z,99.90
2018-04-15T03:35:33.680Z,99.90
2018-04-15T03:38:02.026Z,99.90
2018-04-15T03:40:30.302Z,99.90
2018-04-15T03:42:58.598Z,99.90
2018-04-15T03:45:26.833Z,99.90
2018-04-15T03:47:55.068Z,99.90
2018-04-15T03:50:23.311Z,99.90
2018-04-15T03:52:51.512Z,99.90
2018-04-15T03:55:19.862Z,99.90
2018-04-15T03:57:49.565Z,99.90
2018-04-15T04:00:17.831Z,99.90
2018-04-15T04:02:46.023Z,99.90
2018-04-15T04:05:14.260Z,99.90
2018-04-15T04:07:42.543Z,99.90
2018-04-15T04:10:10.815Z,99.90
2018-04-15T04:12:39.024Z,99.90
2018-04-15T04:15:07.266Z,99.90
2018-04-15T04:17:47.440Z,99.90
2018-04-15T04:20:27.374Z,99.90
2018-04-15T04:23:08.041Z,99.90
2018-04-15T04:25:48.047Z,99.90
2018-04-15T04:28:16.263Z,99.90
2018-04-15T04:30:44.572Z,99.90
2018-04-15T04:33:13.484Z,99.90
2018-04-15T04:35:41.675Z,99.90
2018-04-15T04:38:09.914Z,99.90
2018-04-15T04:40:38.187Z,99.90
2018-04-15T04:43:06.439Z,99.90
2018-04-15T04:45:34.644Z,99.90
2018-04-15T04:48:02.923Z,99.90
2018-04-15T04:50:31.118Z,99.90
2018-04-15T04:52:59.366Z,99.90
2018-04-15T04:55:27.741Z,99.90
2018-04-15T04:57:55.931Z,99.90
2018-04-15T05:00:24.212Z,99.90
2018-04-15T05:02:52.459Z,99.90
2018-04-15T05:05:20.674Z,99.90
2018-04-15T05:07:48.843Z,99.90
2018-04-15T05:10:17.075Z,99.90
2018-04-15T05:12:45.335Z,99.90
2018-04-15T05:15:14.291Z,99.90
2018-04-15T05:17:42.638Z,99.90
2018-04-15T05:20:10.812Z,99.90
2018-04-15T05:22:39.075Z,99.90
2018-04-15T05:25:07.335Z,99.90
2018-04-15T05:27:35.590Z,99.90
2018-04-15T05:30:04.547Z,99.90
2018-04-15T05:32:32.779Z,99.90
2018-04-15T05:35:00.971Z,99.90
2018-04-15T05:37:29.270Z,99.90
2018-04-15T05:39:57.506Z,99.90
2018-04-15T05:42:25.717Z,99.90
2018-04-15T05:44:53.970Z,99.90
2018-04-15T05:47:23.822Z,99.90
2018-04-15T05:49:52.016Z,99.90
2018-04-15T05:52:20.245Z,99.90
2018-04-15T05:54:48.590Z,99.90
2018-04-15T05:57:17.636Z,99.90
2018-04-15T05:59:45.835Z,99.90
2018-04-15T06:02:14.132Z,99.70
2018-04-15T06:04:43.191Z,99.80
2018-04-15T06:07:11.530Z,99.80
2018-04-15T06:09:40.529Z,99.90
2018-04-15T06:12:08.732Z,99.90
2018-04-15T06:14:36.980Z,99.80
2018-04-15T06:17:05.231Z,99.90
2018-04-15T06:19:35.447Z,99.50
2018-04-15T06:22:04.435Z,99.60
2018-04-15T06:24:33.483Z,99.40
2018-04-15T06:27:02.449Z,99.30
2018-04-15T06:29:33.245Z,99.30
2018-04-15T06:32:01.755Z,99.10
2018-04-15T06:34:29.993Z,99.20
2018-04-15T06:36:58.176Z,99.10
2018-04-15T06:39:26.554Z,99.10
2018-04-15T06:41:54.735Z,98.40
2018-04-15T06:44:23.815Z,97.80
2018-04-15T06:46:52.047Z,97.20
2018-04-15T06:49:20.350Z,97.50
2018-04-15T06:51:48.463Z,97.70
2018-04-15T06:54:17.499Z,97.60
2018-04-15T06:56:45.744Z,97.60
2018-04-15T06:59:14.714Z,96.30
2018-04-15T07:01:42.934Z,96.30
2018-04-15T07:04:11.184Z,96.80
2018-04-15T07:06:40.423Z,96.20
2018-04-15T07:09:08.847Z,96.20
2018-04-15T07:11:37.314Z,96.10
2018-04-15T07:14:05.514Z,96.40
2018-04-15T07:16:35.069Z,95.60
2018-04-15T07:19:04.168Z,94.60
2018-04-15T07:21:32.419Z,94.60
2018-04-15T07:24:00.631Z,94.70
2018-04-15T07:26:28.851Z,93.60
2018-04-15T07:28:57.803Z,93.60
2018-04-15T07:31:26.095Z,93.60
2018-04-15T07:33:54.331Z,92.90
2018-04-15T07:36:23.318Z,93.30
2018-04-15T07:38:51.669Z,92.40
2018-04-15T07:41:19.910Z,91.60
2018-04-15T07:43:48.479Z,91.20
2018-04-15T07:46:16.946Z,90.90
2018-04-15T07:48:45.244Z,89.20
2018-04-15T07:51:13.728Z,86.90
2018-04-15T07:53:42.004Z,82.30
2018-04-15T07:56:10.258Z,78.30
2018-04-15T07:58:38.423Z,76.90
2018-04-15T08:01:07.407Z,71.10
2018-04-15T08:03:35.594Z,71.10
2018-04-15T08:06:03.915Z,73.90
2018-04-15T08:08:32.156Z,72.30
2018-04-15T08:11:00.344Z,69.30
2018-04-15T08:13:28.544Z,66.60
2018-04-15T08:15:57.527Z,65.50
2018-04-15T08:18:25.723Z,65.40
2018-04-15T08:20:54.811Z,68.60
2018-04-15T08:23:23.935Z,70.50
2018-04-15T08:25:52.148Z,70.40
2018-04-15T08:28:20.327Z,70.30
2018-04-15T08:30:48.573Z,72.20
2018-04-15T08:33:16.872Z,71.00
2018-04-15T08:35:45.059Z,71.60
2018-04-15T08:38:13.339Z,70.10
2018-04-15T08:40:41.563Z,70.60
2018-04-15T08:43:09.751Z,72.50
2018-04-15T08:45:39.399Z,72.30
2018-04-15T08:48:07.841Z,73.10
2018-04-15T08:50:36.104Z,71.40
2018-04-15T08:53:05.176Z,71.70
2018-04-15T08:55:34.152Z,73.10
2018-04-15T08:58:02.346Z,73.10
2018-04-15T09:00:31.311Z,73.80
2018-04-15T09:02:59.495Z,73.80
2018-04-15T09:05:27.696Z,72.30
2018-04-15T09:07:56.054Z,73.60
2018-04-15T09:10:24.226Z,73.40
2018-04-15T09:12:52.415Z,74.70
2018-04-15T09:15:21.410Z,73.20
2018-04-15T09:17:50.359Z,73.30
2018-04-15T09:20:18.579Z,74.00
2018-04-15T09:22:47.539Z,73.80
2018-04-15T09:25:15.738Z,73.80
2018-04-15T09:27:44.831Z,74.30
2018-04-15T09:30:14.111Z,74.90
2018-04-15T09:32:42.331Z,74.80
2018-04-15T09:35:10.519Z,73.30
2018-04-15T09:37:38.739Z,73.40
2018-04-15T09:42:48.409Z,71.80
2018-04-15T09:45:17.364Z,72.60
2018-04-15T09:47:45.891Z,72.60
2018-04-15T09:50:15.371Z,73.20
2018-04-15T09:52:43.946Z,73.20
2018-04-15T09:55:12.184Z,73.60
2018-04-15T09:57:40.416Z,71.90
2018-04-15T10:00:08.599Z,71.50
2018-04-15T10:02:37.556Z,68.50
2018-04-15T10:05:06.029Z,68.40
2018-04-15T10:07:34.220Z,67.40
2018-04-15T10:10:02.412Z,69.10
2018-04-15T10:12:30.727Z,71.20
2018-04-15T10:14:59.123Z,71.80
2018-04-15T10:17:27.307Z,71.80
2018-04-15T10:19:55.529Z,72.50
2018-04-15T10:22:23.719Z,73.00
2018-04-15T10:24:51.999Z,72.60
2018-04-15T10:27:20.251Z,73.20
2018-04-15T10:29:49.202Z,75.20
2018-04-15T10:32:17.399Z,75.20
2018-04-15T10:34:45.699Z,73.80
2018-04-15T10:37:14.692Z,72.80
2018-04-15T10:39:43.658Z,73.80
2018-04-15T10:42:11.993Z,73.70
2018-04-15T10:44:40.220Z,73.20
2018-04-15T10:47:08.439Z,73.70
2018-04-15T10:49:36.666Z,74.30
2018-04-15T10:52:04.891Z,73.00
2018-04-15T10:54:33.082Z,73.90
2018-04-15T10:57:01.363Z,76.30
2018-04-15T10:59:29.551Z,73.90
2018-04-15T11:01:57.739Z,73.40
2018-04-15T11:04:26.035Z,72.50
2018-04-15T11:06:54.223Z,73.40
2018-04-15T11:09:23.175Z,72.30
2018-04-15T11:11:51.386Z,72.20
2018-04-15T11:14:20.339Z,71.60
2018-04-15T11:16:48.527Z,71.50
2018-04-15T11:19:16.743Z,73.00
2018-04-15T11:21:44.971Z,74.70
2018-04-15T11:24:14.028Z,73.70
2018-04-15T11:26:42.307Z,73.70
2018-04-15T11:29:10.495Z,72.60
2018-04-15T11:31:38.683Z,71.70
2018-04-15T11:34:06.932Z,74.20
2018-04-15T11:36:35.119Z,70.80
2018-04-15T11:39:03.310Z,67.70
2018-04-15T11:41:32.825Z,67.70
2018-04-15T11:44:01.011Z,66.90
2018-04-15T11:46:29.243Z,67.80
2018-04-15T11:48:57.499Z,68.50
2018-04-15T11:51:25.767Z,67.50
2018-04-15T11:53:53.992Z,69.40
2018-04-15T11:56:22.199Z,65.80
2018-04-15T11:58:51.167Z,69.20
2018-04-15T12:01:19.396Z,68.30
2018-04-15T12:03:47.639Z,65.40
2018-04-15T12:06:16.603Z,61.40
2018-04-15T12:08:45.055Z,61.40
2018-04-15T12:11:13.608Z,63.10
2018-04-15T12:13:42.615Z,56.80
2018-04-15T12:16:11.579Z,56.10
2018-04-15T12:18:39.826Z,56.00
2018-04-15T12:21:08.144Z,57.50
2018-04-15T12:23:37.112Z,55.30
2018-04-15T12:26:05.459Z,55.30
2018-04-15T12:28:33.722Z,56.50
2018-04-15T12:31:01.907Z,56.50
2018-04-15T12:33:30.169Z,54.40
2018-04-15T12:35:58.362Z,55.50
2018-04-15T12:38:26.626Z,55.80
2018-04-15T12:40:54.828Z,53.70
2018-04-15T12:43:22.991Z,52.60
2018-04-15T12:45:51.175Z,51.80
2018-04-15T12:48:20.183Z,51.60
2018-04-15T12:50:48.376Z,51.60
2018-04-15T12:53:16.747Z,49.60
2018-04-15T12:55:44.972Z,50.70
2018-04-15T12:58:13.159Z,50.70
2018-04-15T13:00:42.277Z,52.20
2018-04-15T13:03:10.657Z,51.60
2018-04-15T13:05:38.843Z,50.50
2018-04-15T13:08:07.079Z,49.30
2018-04-15T13:10:35.327Z,50.90
2018-04-15T13:13:04.283Z,52.30
2018-04-15T13:15:32.756Z,52.20
2018-04-15T13:18:00.947Z,51.00
2018-04-15T13:20:29.135Z,52.20
2018-04-15T13:22:58.143Z,53.50
2018-04-15T13:25:27.115Z,53.90
2018-04-15T13:27:55.654Z,54.00
2018-04-15T13:30:24.100Z,52.10
2018-04-15T13:32:52.323Z,52.10
2018-04-15T13:35:20.549Z,50.00
2018-04-15T13:37:49.539Z,50.00
2018-04-15T13:40:18.569Z,49.80
2018-04-15T13:42:46.791Z,49.70
2018-04-15T13:45:15.016Z,49.50
2018-04-15T13:47:43.244Z,51.20
2018-04-15T13:50:11.536Z,47.30
2018-04-15T13:52:40.564Z,49.50
2018-04-15T13:55:08.992Z,49.40
2018-04-15T13:57:37.269Z,49.20
2018-04-15T14:00:05.461Z,51.00
2018-04-15T14:02:34.439Z,51.10
2018-04-15T14:05:02.645Z,51.10
2018-04-15T14:07:30.836Z,49.70
2018-04-15T14:09:59.111Z,50.00
2018-04-15T14:12:27.403Z,48.90
2018-04-15T14:14:55.647Z,49.00
2018-04-15T14:17:23.895Z,51.60
2018-04-15T14:19:52.080Z,53.60
2018-04-15T14:22:21.103Z,52.00
2018-04-15T14:24:49.391Z,52.00
2018-04-15T14:27:17.576Z,52.10
2018-04-15T14:29:45.949Z,52.00
2018-04-15T14:32:14.247Z,50.60
2018-04-15T14:34:42.435Z,48.40
2018-04-15T14:37:10.751Z,47.10
2018-04-15T14:39:39.016Z,46.50
2018-04-15T14:42:08.120Z,46.00
2018-04-15T14:44:36.247Z,45.90
2018-04-15T14:47:04.675Z,45.50
2018-04-15T14:49:33.052Z,46.70
2018-04-15T14:52:01.240Z,47.80
2018-04-15T14:54:29.500Z,50.70
2018-04-15T14:56:58.483Z,50.60
2018-04-15T14:59:27.442Z,50.60
2018-04-15T15:01:55.697Z,50.60
2018-04-15T15:04:24.276Z,51.00
2018-04-15T15:06:52.469Z,52.70
2018-04-15T15:09:20.741Z,52.80
2018-04-15T15:11:49.013Z,53.30
2018-04-15T15:14:17.242Z,52.00
2018-04-15T15:16:46.259Z,50.60
2018-04-15T15:19:14.510Z,50.70
2018-04-15T15:21:42.755Z,49.80
2018-04-15T15:24:11.114Z,46.60
2018-04-15T15:26:39.389Z,46.70
2018-04-15T15:29:07.683Z,46.10
2018-04-15T15:31:35.964Z,47.30
2018-04-15T15:34:04.155Z,45.90
2018-04-15T15:36:33.136Z,48.80
2018-04-15T15:39:01.378Z,48.80
2018-04-15T15:41:29.584Z,49.70
2018-04-15T15:43:57.815Z,49.90
2018-04-15T15:46:26.061Z,50.20
2018-04-15T15:48:54.338Z,50.10
2018-04-15T15:51:22.507Z,49.40
2018-04-15T15:53:50.805Z,48.50
2018-04-15T15:56:19.757Z,48.20
2018-04-15T15:58:47.971Z,48.20
2018-04-15T16:01:16.975Z,47.80
2018-04-15T16:03:45.163Z,47.80
2018-04-15T16:06:13.357Z,48.70
2018-04-15T16:08:41.650Z,50.80
2018-04-15T16:11:09.787Z,53.50
2018-04-15T16:13:38.860Z,52.70
2018-04-15T16:16:07.892Z,54.40
2018-04-15T16:18:36.088Z,54.40
2018-04-15T16:21:04.455Z,55.60
2018-04-15T16:23:32.707Z,56.10
2018-04-15T16:26:00.923Z,56.00
2018-04-15T16:28:29.110Z,56.00
2018-04-15T16:30:57.370Z,57.00
2018-04-15T16:33:25.675Z,55.90
2018-04-15T16:35:54.763Z,56.30
2018-04-15T16:38:23.012Z,56.40
2018-04-15T16:40:51.207Z,56.40
2018-04-15T16:43:19.405Z,57.00
2018-04-15T16:45:48.391Z,57.70
2018-04-15T16:48:17.343Z,57.80
2018-04-15T16:50:45.623Z,57.80
2018-04-15T16:53:14.034Z,58.30
2018-04-15T16:55:42.998Z,58.60
2018-04-15T16:58:11.247Z,58.60
2018-04-15T17:00:39.498Z,59.30
2018-04-15T17:03:07.710Z,60.60
2018-04-15T17:05:35.972Z,60.40
2018-04-15T17:08:04.208Z,59.90
2018-04-15T17:10:33.180Z,59.90
2018-04-15T17:13:10.803Z,59.90
2018-04-15T17:15:39.106Z,60.20
2018-04-15T17:18:07.427Z,61.20
2018-04-15T17:20:36.554Z,61.40
2018-04-15T17:23:05.661Z,61.80
2018-04-15T17:25:33.886Z,61.50
2018-04-15T17:28:02.681Z,61.90
2018-04-15T17:30:31.277Z,62.00
2018-04-15T17:33:00.604Z,62.70
2018-04-15T17:35:30.265Z,62.50
2018-04-15T17:37:59.055Z,63.30
2018-04-15T17:40:29.146Z,63.30
2018-04-15T17:42:57.707Z,63.00
2018-04-15T17:45:26.643Z,63.60
2018-04-15T17:47:54.932Z,64.60
2018-04-15T17:50:23.291Z,68.10
2018-04-15T17:52:52.712Z,67.00
2018-04-15T17:55:23.343Z,70.90
2018-04-15T17:57:53.592Z,69.20
2018-04-15T18:00:22.269Z,69.20
2018-04-15T18:02:51.501Z,76.30
2018-04-15T18:05:20.896Z,74.40
2018-04-15T18:07:49.791Z,76.50
2018-04-15T18:10:18.311Z,78.10
2018-04-15T18:12:47.026Z,76.30
2018-04-15T18:15:18.671Z,78.00
2018-04-15T18:17:47.064Z,78.00
2018-04-15T18:20:16.592Z,76.80
2018-04-15T18:22:44.835Z,77.20
2018-04-15T18:25:13.887Z,80.40
2018-04-15T18:27:42.135Z,80.40
2018-04-15T18:30:10.365Z,81.60
2018-04-15T18:32:38.626Z,82.10
2018-04-15T18:35:07.759Z,83.80
2018-04-15T18:37:37.181Z,84.40
2018-04-15T18:40:06.189Z,84.70
2018-04-15T18:42:34.435Z,84.70
2018-04-15T18:45:02.702Z,87.40
2018-04-15T18:47:31.672Z,86.90
2018-04-15T18:50:00.759Z,88.20
2018-04-15T18:52:28.898Z,88.10
2018-04-15T18:54:57.117Z,87.60
2018-04-15T18:57:25.341Z,88.40
2018-04-15T18:59:53.559Z,89.10
2018-04-15T19:02:21.755Z,89.10
2018-04-15T19:04:50.768Z,89.70
2018-04-15T19:07:19.185Z,89.80
2018-04-15T19:09:47.683Z,90.20
2018-04-15T19:12:16.675Z,90.70
2018-04-15T19:14:45.042Z,90.50
2018-04-15T19:17:13.408Z,90.60
2018-04-15T19:19:42.565Z,90.90
2018-04-15T19:22:11.692Z,91.00
2018-04-15T19:24:39.934Z,91.00
2018-04-15T19:27:09.498Z,90.70
2018-04-15T19:29:39.549Z,90.70
2018-04-15T19:32:08.482Z,90.30
2018-04-15T19:34:36.788Z,90.40
2018-04-15T19:37:05.325Z,90.50
2018-04-15T19:39:34.339Z,91.20
2018-04-15T19:42:02.732Z,91.20
2018-04-15T19:44:30.919Z,90.80
2018-04-15T19:46:59.169Z,91.20
2018-04-15T19:49:28.259Z,91.20
2018-04-15T19:51:56.459Z,91.10
2018-04-15T19:54:24.715Z,91.40
2018-04-15T19:56:53.718Z,91.70
2018-04-15T19:59:22.683Z,91.60
2018-04-15T20:01:52.236Z,92.20
2018-04-15T20:04:21.362Z,92.10
2018-04-15T20:06:49.722Z,92.00
2018-04-15T20:09:17.943Z,92.00
2018-04-15T20:11:46.967Z,92.10
2018-04-15T20:14:15.470Z,92.10
2018-04-15T20:16:43.970Z,92.30
2018-04-15T20:19:12.233Z,92.20
2018-04-15T20:21:41.925Z,91.90
2018-04-15T20:24:10.147Z,92.70
2018-04-15T20:26:38.449Z,92.10
2018-04-15T20:29:06.664Z,92.40
2018-04-15T20:31:35.559Z,92.50
2018-04-15T20:34:03.979Z,92.80
2018-04-15T20:36:32.496Z,92.90
2018-04-15T20:39:00.923Z,93.10
2018-04-15T20:41:29.999Z,93.00
2018-04-15T20:43:58.268Z,93.00
2018-04-15T20:46:26.455Z,93.00
2018-04-15T20:48:54.760Z,93.30
2018-04-15T20:51:22.995Z,92.50
2018-04-15T20:53:51.266Z,92.50
2018-04-15T20:56:19.487Z,92.70
2018-04-15T20:58:47.710Z,92.70
2018-04-15T21:01:16.011Z,93.20
2018-04-15T21:03:44.283Z,93.20
2018-04-15T21:06:12.544Z,92.50
2018-04-15T21:08:40.750Z,92.70
2018-04-15T21:11:09.031Z,92.80
2018-04-15T21:13:37.287Z,92.90
2018-04-15T21:16:05.485Z,93.50
2018-04-15T21:18:33.739Z,93.30
2018-04-15T21:21:02.027Z,93.80
2018-04-15T21:23:30.300Z,93.20
2018-04-15T21:25:58.548Z,93.10
2018-04-15T21:28:26.739Z,93.10
2018-04-15T21:30:55.070Z,93.70
2018-04-15T21:33:23.287Z,94.80
2018-04-15T21:35:51.474Z,93.90
2018-04-15T21:38:19.735Z,94.00
2018-04-15T21:40:47.964Z,94.10
2018-04-15T21:43:18.680Z,94.00
2018-04-15T21:45:46.884Z,94.20
2018-04-15T21:48:15.918Z,94.90
2018-04-15T21:50:44.147Z,94.90
2018-04-15T21:53:12.468Z,95.00
2018-04-15T21:55:40.723Z,95.40
2018-04-15T21:58:08.935Z,95.20
2018-04-15T22:00:37.143Z,96.00
2018-04-15T22:03:05.403Z,96.20
2018-04-15T22:05:34.131Z,96.10
2018-04-15T22:08:03.123Z,96.80
2018-04-15T22:10:32.151Z,97.10
2018-04-15T22:13:08.007Z,97.00
2018-04-15T22:15:37.551Z,96.90
2018-04-15T22:18:05.753Z,96.80
2018-04-15T22:20:34.759Z,97.10
2018-04-15T22:23:03.017Z,97.10
2018-04-15T22:25:31.223Z,97.50
2018-04-15T22:27:59.423Z,97.20
2018-04-15T22:30:27.679Z,96.90
2018-04-15T22:32:55.876Z,96.70
2018-04-15T22:35:24.091Z,96.70
2018-04-15T22:37:53.158Z,97.30
2018-04-15T22:40:21.418Z,97.30
2018-04-15T22:42:49.709Z,97.30
2018-04-15T22:45:18.018Z,96.80
2018-04-15T22:47:53.260Z,96.70
2018-04-15T22:50:21.532Z,96.70
2018-04-15T22:52:50.501Z,96.70
2018-04-15T22:55:18.697Z,96.70
2018-04-15T22:57:50.144Z,97.90
2018-04-15T23:00:19.169Z,97.60
2018-04-15T23:02:47.363Z,97.60
2018-04-15T23:05:15.591Z,97.20
2018-04-15T23:07:43.788Z,97.40
2018-04-15T23:10:12.035Z,98.10
2018-04-15T23:12:40.393Z,98.10
2018-04-15T23:15:08.587Z,98.50
2018-04-15T23:17:36.808Z,98.50
2018-04-15T23:20:05.064Z,98.40
2018-04-15T23:22:34.160Z,99.80
2018-04-15T23:25:03.151Z,99.90
2018-04-15T23:27:31.394Z,99.90
2018-04-15T23:29:59.598Z,99.90
2018-04-15T23:32:28.580Z,99.90
2018-04-15T23:34:56.823Z,99.90
2018-04-15T23:37:25.026Z,99.90
2018-04-15T23:39:53.225Z,99.90
2018-04-15T23:42:22.255Z,99.90
2018-04-15T23:44:50.468Z,99.90
2018-04-15T23:47:20.707Z,99.90
2018-04-15T23:49:49.714Z,99.90
2018-04-15T23:52:18.684Z,99.90
2018-04-15T23:54:46.871Z,99.90
2018-04-15T23:57:15.887Z,99.90
2018-04-15T23:59:44.105Z,99.90
